GW6935 Weather Reports


time (UTC)temp
F
wind
direction
speed
knots
gust
knots
rain 1hr
in
rain 24hr
in
rain mn
in
humidity
%
barometer
mb
20260903025535 77 309 0.0 0.0 0.00 0.00 0.00 84 1052.8
20260903025031 77 309 0.0 0.0 0.00 0.00 0.00 84 1052.8
20260903024531 78 309 0.0 0.0 0.00 0.00 0.00 84 1052.8
20260903024025 78 309 0.0 0.0 0.00 0.00 0.00 83 1052.9
20260903023521 78 309 0.0 0.0 0.00 0.00 0.00 82 1052.9
20260903023016 77 309 0.0 0.0 0.00 0.00 0.00 80 1053.0
20260903022515 77 309 0.0 0.0 0.00 0.00 0.00 82 1053.0
20260903022014 77 309 0.0 0.0 0.00 0.00 0.00 82 1052.9
20260903021509 77 309 0.0 0.0 0.00 0.00 0.00 84 1053.0
20260903021004 78 309 0.0 0.0 0.00 0.00 0.00 82 1052.9
20260903020500 78 309 0.0 0.0 0.00 0.00 0.00 81 1053.0
20260903015959 79 309 0.0 0.0 0.00 0.00 0.00 79 1053.0
20260903015455 79 309 0.0 0.0 0.00 0.00 0.00 79 1052.9
20260903014950 80 309 0.0 0.0 0.00 0.00 0.00 78 1052.9
20260903014449 80 309 0.0 0.0 0.00 0.00 0.00 76 1053.0
20260903013945 80 309 0.0 0.0 0.00 0.00 0.00 77 1052.8
20260903013444 80 309 0.0 0.0 0.00 0.00 0.00 76 1052.9
20260903012943 80 309 0.0 0.0 0.00 0.00 0.00 76 1053.1
20260903012443 80 309 0.0 0.0 0.00 0.00 0.00 75 1052.9
20260903011942 80 309 0.0 0.0 0.00 0.00 0.00 76 1052.6
20260903011437 80 309 0.0 0.0 0.00 0.00 0.00 76 1052.7
20260903010932 81 309 0.0 0.0 0.00 0.00 0.00 75 1052.6
20260903010427 81 309 0.0 0.0 0.00 0.00 0.00 73 1052.6
20260903005925 81 309 0.0 0.0 0.00 0.00 0.00 73 1052.6
20260903005421 81 309 0.0 0.0 0.00 0.00 0.00 75 1052.7
20260903004918 82 309 0.0 0.0 0.00 0.00 0.00 75 1052.7
20260903004418 82 309 0.0 0.0 0.00 0.00 0.00 75 1052.6
20260903003914 83 309 0.0 0.0 0.00 0.00 0.00 71 1052.6
20260903003413 84 309 0.0 0.0 0.00 0.00 0.00 69 1052.6
20260903002914 84 309 0.0 0.0 0.00 0.00 0.00 64 1052.6
20260903002409 85 309 0.0 0.0 0.00 0.00 0.00 62 1052.4
20260903001908 85 309 0.0 0.0 0.00 0.00 0.00 62 1052.6
20260903001403 86 309 0.0 0.0 0.00 0.00 0.00 61 1052.6
20260903000903 86 309 0.0 0.0 0.00 0.00 0.00 60 1052.6
20260903000358 86 309 0.9 0.9 0.00 0.00 0.00 61 1052.6
20260902235856 86 309 0.9 0.9 0.00 0.00 0.00 61 1052.4
20260902235352 87 309 0.9 0.9 0.00 0.00 0.00 63 1052.8
20260902234852 87 309 0.0 0.0 0.00 0.00 0.00 58 1052.6
20260902234351 87 309 0.0 0.0 0.00 0.00 0.00 58 1052.6
20260902233850 88 309 0.0 0.0 0.00 0.00 0.00 57 1052.6
20260902233345 88 309 0.0 0.0 0.00 0.00 0.00 57 1052.8
20260902232843 89 309 0.0 0.0 0.00 0.00 0.00 56 1052.4
20260902232338 89 309 0.0 0.0 0.00 0.00 0.00 58 1052.6
20260902231838 88 309 0.0 0.0 0.00 0.00 0.00 57 1052.8
20260902231333 89 309 0.0 0.0 0.00 0.00 0.00 58 1052.7
20260902230829 89 309 0.0 0.0 0.00 0.00 0.00 57 1052.6
20260902230328 89 309 0.0 0.0 0.00 0.00 0.00 56 1052.9
20260902225828 90 309 0.0 0.0 0.00 0.00 0.00 56 1052.7
20260902225323 90 309 0.0 0.0 0.00 0.00 0.00 55 1052.8
20260902224821 91 309 0.0 0.0 0.00 0.00 0.00 54 1052.5
20260902224316 91 309 0.0 0.0 0.00 0.00 0.00 53 1052.7
20260902223814 92 310 0.0 0.0 0.00 0.00 0.00 55 1052.7
20260902223314 93 309 0.0 0.0 0.00 0.00 0.00 54 1052.7
20260902222813 94 310 0.0 0.0 0.00 0.00 0.00 49 1052.5
20260902222312 94 310 0.0 0.0 0.00 0.00 0.00 50 1052.9
20260902221807 95 310 0.0 0.0 0.00 0.00 0.00 51 1052.8
20260902221306 94 309 0.0 0.0 0.00 0.00 0.00 50 1052.9
20260902220802 93 309 0.0 0.9 0.00 0.00 0.00 47 1052.7
20260902220301 93 309 0.0 0.0 0.00 0.00 0.00 54 1053.0
20260902215756 93 310 0.0 0.0 0.00 0.00 0.00 50 1052.7
20260902215252 94 310 0.0 0.0 0.00 0.00 0.00 53 1052.9
20260902214748 94 272 0.0 0.0 0.00 0.00 0.00 52 1052.9
20260902214246 94 273 0.9 1.7 0.00 0.00 0.00 47 1052.9
20260902213742 96 277 0.9 1.7 0.00 0.00 0.00 48 1053.1
20260902213242 97 254 0.0 0.9 0.00 0.00 0.00 46 1053.1
20260902212741 98 249 0.9 0.9 0.00 0.00 0.00 45 1053.2
20260902212238 98 306 0.0 0.9 0.00 0.00 0.00 44 1053.2
20260902211734 97 306 0.9 0.9 0.00 0.00 0.00 42 1053.2
20260902211230 98 244 0.9 1.7 0.00 0.00 0.00 42 1053.1
20260902210729 98 240 0.9 1.7 0.00 0.00 0.00 42 1053.1
20260902210225 98 262 1.7 1.7 0.00 0.00 0.00 44 1053.1
20260902205722 99 296 0.9 0.9 0.00 0.00 0.00 43 1053.0
20260902205218 99 283 0.0 0.9 0.00 0.00 0.00 45 1053.3
20260902204713 99 283 0.0 1.7 0.00 0.00 0.00 45 1053.2
20260902204208 98 261 0.0 0.9 0.00 0.00 0.00 45 1053.3
20260902203704 99 261 1.7 2.6 0.00 0.00 0.00 42 1053.2
20260902203204 98 268 0.0 1.7 0.00 0.00 0.00 45 1053.2
20260902202658 98 260 0.0 2.6 0.00 0.00 0.00 48 1053.1
20260902202155 98 204 0.0 0.9 0.00 0.00 0.00 46 1053.2
20260902201651 97 258 0.0 0.0 0.00 0.00 0.00 52 1053.4
20260902201150 97 339 0.0 0.9 0.00 0.00 0.00 50 1053.3
20260902200645 98 204 0.9 2.6 0.00 0.00 0.00 44 1053.5
20260902200141 97 265 0.9 1.7 0.00 0.00 0.00 49 1053.5
20260902195637 96 258 0.0 1.7 0.00 0.00 0.00 49 1053.4
20260902195136 96 261 0.0 0.9 0.00 0.00 0.00 49 1053.5
20260902194635 95 258 0.0 0.9 0.00 0.00 0.00 50 1053.6
20260902194130 97 256 0.9 1.7 0.00 0.00 0.00 48 1053.7
20260902193627 97 300 1.7 1.7 0.00 0.00 0.00 45 1053.7
20260902193127 96 320 0.0 0.9 0.00 0.00 0.00 48 1053.9
20260902192625 96 25 0.9 1.7 0.00 0.00 0.00 48 1054.1
20260902192124 97 359 2.6 5.2 0.00 0.00 0.00 42 1054.1
20260902191620 98 260 1.7 3.5 0.00 0.00 0.00 47 1054.0
20260902191119 98 320 1.7 2.6 0.00 0.00 0.00 47 1054.0
20260902190615 98 279 0.0 0.0 0.00 0.00 0.00 43 1054.0
20260902190110 98 91 0.9 1.7 0.00 0.00 0.00 44 1054.0
20260902185606 97 252 0.0 1.7 0.00 0.00 0.00 50 1054.2
20260902185102 96 14 0.0 0.0 0.00 0.00 0.00 51 1054.2
20260902184556 96 255 0.9 1.7 0.00 0.00 0.00 48 1054.3
20260902184052 97 311 2.6 3.5 0.00 0.00 0.00 45 1054.2
20260902183548 97 327 1.7 3.5 0.00 0.00 0.00 47 1054.0
20260902183044 96 253 0.9 1.7 0.00 0.00 0.00 46 1054.2
20260902182540 96 267 2.6 2.6 0.00 0.00 0.00 47 1054.1
20260902182037 96 104 1.7 1.7 0.00 0.00 0.00 51 1054.1
20260902181532 96 289 0.9 0.9 0.00 0.00 0.00 51 1054.3
20260902181026 96 291 2.6 5.2 0.00 0.00 0.00 47 1054.4
20260902180526 96 262 0.0 0.9 0.00 0.00 0.00 48 1054.4
20260902180023 96 256 1.7 1.7 0.00 0.00 0.00 45 1054.4
20260902175522 95 277 1.7 2.6 0.00 0.00 0.00 48 1054.5
20260902175018 96 281 1.7 2.6 0.00 0.00 0.00 54 1054.5
20260902174515 96 273 1.7 0.9 0.00 0.00 0.00 51 1054.6
20260902174010 95 275 0.9 0.9 0.00 0.00 0.00 53 1054.7
20260902173509 95 276 0.0 1.7 0.00 0.00 0.00 55 1054.7
20260902173004 95 334 1.7 1.7 0.00 0.00 0.00 53 1054.7
20260902172504 96 268 0.9 2.6 0.00 0.00 0.00 52 1055.1
20260902171959 95 283 0.9 2.6 0.00 0.00 0.00 53 1054.9
20260902171454 95 273 1.7 1.7 0.00 0.00 0.00 57 1054.9
20260902170950 95 261 1.7 2.6 0.00 0.00 0.00 53 1055.1
20260902170450 96 292 0.9 1.7 0.00 0.00 0.00 55 1055.2
20260902165946 95 266 0.0 0.9 0.00 0.00 0.00 55 1055.2
20260902165445 96 257 0.0 1.7 0.00 0.00 0.00 48 1055.3
20260902164940 95 241 0.9 1.7 0.00 0.00 0.00 47 1055.1
20260902164436 94 273 0.0 1.7 0.00 0.00 0.00 55 1055.4
20260902163935 94 267 0.9 0.9 0.00 0.00 0.00 52 1055.5
20260902163430 94 267 0.9 1.7 0.00 0.00 0.00 54 1055.4
20260902162928 94 261 0.9 1.7 0.00 0.00 0.00 56 1055.7
20260902162423 93 296 0.0 0.9 0.00 0.00 0.00 57 1055.7
20260902161923 92 5 0.0 1.7 0.00 0.00 0.00 57 1055.8
20260902161418 93 284 0.9 2.6 0.00 0.00 0.00 62 1055.6
20260902160914 93 101 0.9 0.9 0.00 0.00 0.00 57 1055.6
20260902160409 92 287 0.0 1.7 0.00 0.00 0.00 57 1055.5
20260902155907 92 1 0.0 3.5 0.00 0.00 0.00 57 1055.6
20260902155402 92 274 0.0 0.9 0.00 0.00 0.00 57 1055.5
20260902154856 91 328 0.9 0.9 0.00 0.00 0.00 67 1055.7
20260902154352 91 30 1.7 1.7 0.00 0.00 0.00 59 1055.7
20260902153851 91 258 0.0 0.9 0.00 0.00 0.00 63 1055.7
20260902153350 91 331 0.9 1.7 0.00 0.00 0.00 61 1055.8
20260902152846 91 272 1.7 1.7 0.00 0.00 0.00 60 1055.8
20260902152342 90 285 0.9 1.7 0.00 0.00 0.00 64 1055.6
20260902151837 90 354 0.0 0.9 0.00 0.00 0.00 62 1055.7
20260902151332 89 261 0.0 0.9 0.00 0.00 0.00 68 1055.8
20260902150827 89 337 0.0 1.7 0.00 0.00 0.00 69 1055.6
20260902150323 88 64 1.7 1.7 0.00 0.00 0.00 64 1055.4
20260902145823 88 324 0.9 1.7 0.00 0.00 0.00 71 1055.6
20260902145318 86 236 0.0 0.9 0.00 0.00 0.00 69 1055.5
20260902144814 86 231 0.0 0.0 0.00 0.00 0.00 69 1055.5
20260902144309 86 336 0.0 0.9 0.00 0.00 0.00 73 1055.6
20260902143804 85 292 0.9 0.9 0.00 0.00 0.00 72 1055.7
20260902143259 85 290 0.9 0.9 0.00 0.00 0.00 72 1055.8
20260902142756 84 278 1.7 1.7 0.00 0.00 0.00 74 1055.8
20260902142250 84 274 0.0 0.9 0.00 0.00 0.00 72 1055.6
20260902141750 84 274 0.9 0.9 0.00 0.00 0.00 73 1055.6
20260902141246 83 275 0.0 0.0 0.00 0.00 0.00 78 1055.5
20260902140740 83 274 0.0 0.9 0.00 0.00 0.00 76 1055.5
20260902140235 83 261 0.0 0.0 0.00 0.00 0.00 76 1055.7
20260902135734 82 261 0.0 0.0 0.00 0.00 0.00 78 1055.5
20260902135230 82 261 0.0 0.0 0.00 0.00 0.00 80 1055.8
20260902134730 81 261 0.0 0.0 0.00 0.00 0.00 79 1055.8
20260902134225 80 261 0.0 0.0 0.00 0.00 0.00 80 1055.7
20260902133721 80 261 0.0 0.0 0.00 0.00 0.00 83 1055.7
20260902133219 80 261 0.0 0.0 0.00 0.00 0.00 82 1055.6
20260902132715 79 261 0.0 0.0 0.00 0.00 0.00 82 1055.6
20260902132210 79 261 0.0 0.0 0.00 0.00 0.00 84 1055.5
20260902131706 78 261 0.0 0.0 0.00 0.00 0.00 85 1055.7
20260902131202 78 261 0.0 0.0 0.00 0.00 0.00 85 1055.6
20260902130657 78 261 0.0 0.0 0.00 0.00 0.00 86 1055.6
20260902130153 77 261 0.0 0.0 0.00 0.00 0.00 86 1055.6
20260902125648 76 261 0.0 0.0 0.00 0.00 0.00 87 1055.6
20260902125144 76 261 0.0 0.0 0.00 0.00 0.00 88 1055.4
20260902124640 75 261 0.0 0.0 0.00 0.00 0.00 90 1055.3
20260902124140 74 261 0.0 0.0 0.00 0.00 0.00 93 1055.4
20260902123636 74 261 0.0 0.0 0.00 0.00 0.00 94 1055.3
20260902123136 73 261 0.0 0.0 0.00 0.00 0.00 94 1055.3
20260902122631 73 261 0.0 0.0 0.00 0.00 0.00 94 1055.4
20260902122126 73 261 0.0 0.0 0.00 0.00 0.00 94 1055.4
20260902121626 73 261 0.0 0.0 0.00 0.00 0.00 94 1055.5
20260902121121 73 261 0.0 0.0 0.00 0.00 0.00 94 1055.3
20260902120617 72 261 0.0 0.0 0.00 0.00 0.00 95 1055.2
20260902120114 72 261 0.0 0.0 0.00 0.00 0.00 94 1055.2
20260902115608 72 261 0.0 0.0 0.00 0.00 0.00 94 1055.1
20260902115104 71 261 0.0 0.0 0.00 0.00 0.00 95 1055.2
20260902114600 71 261 0.0 0.0 0.00 0.00 0.00 96 1054.9
20260902114059 70 261 0.0 0.0 0.00 0.00 0.00 97 1054.9
20260902113555 69 261 0.0 0.0 0.00 0.00 0.00 96 1054.7
20260902113050 69 261 0.0 0.0 0.00 0.00 0.00 96 1055.1
20260902112546 69 261 0.0 0.0 0.00 0.00 0.00 96 1054.8
20260902112043 69 261 0.0 0.0 0.00 0.00 0.00 96 1054.7
20260902111538 69 261 0.0 0.0 0.00 0.00 0.00 96 1054.7
20260902111034 69 261 0.0 0.0 0.00 0.00 0.00 96 1054.6
20260902110530 69 261 0.0 0.0 0.00 0.00 0.00 96 1054.7
20260902110025 69 261 0.0 0.0 0.00 0.00 0.00 96 1054.5
20260902105526 70 261 0.0 0.0 0.00 0.00 0.00 96 1054.5
20260902105020 70 261 0.0 0.0 0.00 0.00 0.00 96 1054.6
20260902104516 69 261 0.0 0.0 0.00 0.00 0.00 96 1054.5
20260902104016 69 261 0.0 0.0 0.00 0.00 0.00 96 1054.2
20260902103511 70 261 0.0 0.0 0.00 0.00 0.00 96 1054.3
20260902103006 70 261 0.0 0.0 0.00 0.00 0.00 96 1054.5
20260902102503 70 261 0.0 0.0 0.00 0.00 0.00 96 1054.1
20260902101959 70 261 0.0 0.0 0.00 0.00 0.00 96 1054.0
20260902101454 70 261 0.0 0.0 0.00 0.00 0.00 96 1054.5
20260902100953 70 261 0.0 0.0 0.00 0.00 0.00 96 1054.3
20260902100448 70 261 0.0 0.0 0.00 0.00 0.00 95 1054.3
20260902095947 70 261 0.0 0.0 0.00 0.00 0.00 95 1054.2
20260902095442 70 261 0.0 0.0 0.00 0.00 0.00 95 1054.2
20260902094941 70 261 0.0 0.0 0.00 0.00 0.00 95 1054.3
20260902094437 70 261 0.0 0.0 0.00 0.00 0.00 95 1054.1
20260902093932 71 261 0.0 0.0 0.00 0.00 0.00 95 1054.0
20260902093427 71 261 0.0 0.0 0.00 0.00 0.00 96 1054.0
20260902092926 70 261 0.0 0.0 0.00 0.00 0.00 96 1054.0
20260902092422 70 261 0.0 0.0 0.00 0.00 0.00 95 1054.0
20260902091922 71 261 0.0 0.0 0.00 0.00 0.00 95 1054.0
20260902091417 71 261 0.0 0.0 0.00 0.00 0.00 95 1053.9
20260902090914 71 261 0.0 0.0 0.00 0.00 0.00 96 1054.0
20260902090414 71 261 0.0 0.0 0.00 0.00 0.00 96 1054.0
20260902085912 71 261 0.0 0.0 0.00 0.00 0.00 96 1054.0
20260902085409 71 261 0.0 0.0 0.00 0.00 0.00 96 1054.1
20260902084909 70 261 0.0 0.0 0.00 0.00 0.00 96 1054.0
20260902084405 70 261 0.0 0.0 0.00 0.00 0.00 96 1053.9
20260902083901 70 261 0.0 0.0 0.00 0.00 0.00 96 1054.0
20260902083401 70 261 0.0 0.0 0.00 0.00 0.00 96 1054.0
20260902082855 70 261 0.0 0.0 0.00 0.00 0.00 96 1053.9
20260902082351 70 261 0.0 0.0 0.00 0.00 0.00 96 1053.8
20260902081848 70 261 0.0 0.0 0.00 0.00 0.00 96 1053.9
20260902081343 70 261 0.0 0.0 0.00 0.00 0.00 96 1053.8
20260902080838 71 261 0.0 0.0 0.00 0.00 0.00 96 1053.8
20260902080335 71 261 0.0 0.0 0.00 0.00 0.00 96 1053.8
20260902075834 71 261 0.0 0.0 0.00 0.00 0.00 96 1053.8
20260902075330 71 261 0.0 0.0 0.00 0.00 0.00 96 1053.9
20260902074826 71 261 0.0 0.0 0.00 0.00 0.00 96 1053.6
20260902074321 71 261 0.0 0.0 0.00 0.00 0.00 96 1053.6
20260902073815 71 261 0.0 0.0 0.00 0.00 0.00 96 1053.7
20260902073312 71 261 0.0 0.0 0.00 0.00 0.00 95 1053.5
20260902072808 71 261 0.0 0.0 0.00 0.00 0.00 95 1053.6
20260902072308 71 261 0.0 0.0 0.00 0.00 0.00 95 1053.6
20260902071759 71 261 0.0 0.0 0.00 0.00 0.00 95 1053.5
20260902071254 71 261 0.0 0.0 0.00 0.00 0.00 95 1053.7
20260902070751 71 261 0.0 0.0 0.00 0.00 0.00 95 1053.5
20260902070250 71 261 0.0 0.0 0.00 0.00 0.00 95 1053.7
20260902065749 71 261 0.0 0.0 0.00 0.00 0.00 95 1053.4
20260902065244 71 261 0.0 0.0 0.00 0.00 0.00 95 1053.7
20260902064740 71 261 0.0 0.0 0.00 0.00 0.00 95 1053.8
20260902064236 72 261 0.0 0.0 0.00 0.00 0.00 95 1053.7
20260902063731 72 261 0.0 0.0 0.00 0.00 0.00 95 1053.6
20260902063226 72 261 0.0 0.0 0.00 0.00 0.00 95 1053.8
20260902062725 72 261 0.0 0.0 0.00 0.00 0.00 95 1054.0
20260902062220 72 261 0.0 0.0 0.00 0.00 0.00 95 1053.5
20260902061719 71 261 0.0 0.0 0.00 0.00 0.00 94 1053.8
20260902061215 72 261 0.0 0.0 0.00 0.00 0.00 94 1053.7
20260902060711 72 261 0.0 0.0 0.00 0.00 0.00 94 1053.9
20260902060207 72 261 0.0 0.0 0.00 0.00 0.00 94 1054.1
20260902055703 72 261 0.0 0.0 0.00 0.00 0.00 94 1053.8
20260902055158 72 261 0.0 0.0 0.00 0.00 0.00 93 1053.9
20260902054653 72 261 0.0 0.0 0.00 0.00 0.00 93 1054.0
20260902054149 73 261 0.0 0.0 0.00 0.00 0.00 93 1053.6
20260902053645 73 261 0.0 0.0 0.00 0.00 0.00 93 1053.8
20260902053144 73 261 0.0 0.0 0.00 0.00 0.00 92 1053.8
20260902052643 73 261 0.0 0.0 0.00 0.00 0.00 92 1053.8
20260902052139 73 261 0.0 0.0 0.00 0.00 0.00 92 1053.8
20260902051638 73 261 0.0 0.0 0.00 0.00 0.00 92 1053.9
20260902051133 73 261 0.0 0.0 0.00 0.00 0.00 92 1053.7
20260902050633 73 261 0.0 0.0 0.00 0.00 0.00 92 1053.7
20260902050129 73 261 0.0 0.0 0.00 0.00 0.00 92 1053.7
20260902045624 73 261 0.0 0.0 0.00 0.00 0.00 92 1053.8
20260902045120 73 261 0.0 0.0 0.00 0.00 0.00 92 1053.8
20260902044620 73 261 0.0 0.0 0.00 0.00 0.00 92 1054.0
20260902044116 73 261 0.0 0.0 0.00 0.00 0.00 92 1053.8
20260902043611 73 261 0.0 0.0 0.00 0.00 0.00 92 1053.7
20260902043106 73 261 0.0 0.0 0.00 0.00 0.00 92 1053.7
20260902042605 73 261 0.0 0.0 0.00 0.00 0.00 92 1053.6
20260902042101 73 261 0.0 0.0 0.00 0.00 0.00 91 1053.6
20260902041601 74 261 0.0 0.0 0.00 0.00 0.00 90 1053.7
20260902041056 74 261 0.0 0.0 0.00 0.00 0.00 90 1053.7
20260902040555 74 262 0.0 0.0 0.00 0.00 0.00 89 1053.7
20260902040050 74 261 0.0 0.0 0.00 0.00 0.00 89 1053.7
20260902035549 74 261 0.0 0.0 0.00 0.00 0.00 89 1053.7
20260902035044 74 261 0.0 0.0 0.00 0.00 0.00 90 1053.6
20260902034543 74 261 0.0 0.0 0.00 0.00 0.00 91 1053.5
20260902034043 74 261 0.0 0.0 0.00 0.00 0.00 92 1053.7
20260902033542 74 261 0.0 0.0 0.00 0.00 0.00 92 1053.8
20260902033037 74 261 0.0 0.0 0.00 0.00 0.00 91 1053.9
20260902032536 74 261 0.0 0.0 0.00 0.00 0.00 91 1053.7
20260902032031 74 261 0.0 0.0 0.00 0.00 0.00 90 1053.6
20260902031526 75 262 0.0 0.0 0.00 0.00 0.00 90 1054.0
20260902031022 75 261 0.0 0.0 0.00 0.00 0.00 89 1054.0
20260902030523 75 261 0.0 0.0 0.00 0.00 0.00 89 1053.8
20260902030023 75 261 0.0 0.0 0.00 0.00 0.00 89 1053.8